createdAt,value
2023-03-26T00:01:39.452Z,97701.00
2023-03-26T00:04:48.867Z,97694.13
2023-03-26T00:07:55.317Z,97689.69
2023-03-26T00:11:01.003Z,97699.75
2023-03-26T00:14:09.955Z,97691.88
2023-03-26T00:17:17.280Z,97689.91
2023-03-26T00:20:23.897Z,97698.69
2023-03-26T00:23:31.104Z,97702.03
2023-03-26T00:26:37.757Z,97705.44
2023-03-26T00:29:44.964Z,97708.91
2023-03-26T00:32:53.615Z,97703.97
2023-03-26T00:36:03.894Z,97715.69
2023-03-26T00:39:10.310Z,97711.34
2023-03-26T00:42:16.088Z,97703.13
2023-03-26T00:45:23.027Z,97704.81
2023-03-26T00:48:44.645Z,97698.06
2023-03-26T00:51:50.462Z,97709.19
2023-03-26T00:54:57.578Z,97709.56
2023-03-26T00:58:01.549Z,97705.19
2023-03-26T01:01:09.202Z,97706.97
2023-03-26T01:04:31.308Z,97713.63
2023-03-26T01:07:37.135Z,97711.56
2023-03-26T01:10:45.388Z,97701.22
2023-03-26T01:13:52.934Z,97701.59
2023-03-26T01:17:02.184Z,97698.31
2023-03-26T01:20:15.504Z,97698.25
2023-03-26T01:23:26.332Z,97691.88
2023-03-26T01:27:11.428Z,97687.41
2023-03-26T01:30:22.932Z,97684.47
2023-03-26T01:33:37.944Z,97688.81
2023-03-26T01:36:51.295Z,97697.72
2023-03-26T01:40:07.428Z,97700.41
2023-03-26T01:43:29.745Z,97711.69
2023-03-26T01:46:37.080Z,97714.69
2023-03-26T01:49:42.515Z,97708.13
2023-03-26T01:53:14.469Z,97699.94
2023-03-26T01:56:29.580Z,97686.25
2023-03-26T02:00:08.402Z,97690.09
2023-03-26T02:03:28.027Z,97686.00
2023-03-26T02:06:40.720Z,97686.63
2023-03-26T02:09:50.420Z,97677.38
2023-03-26T02:12:57.893Z,97672.09
2023-03-26T02:16:12.333Z,97678.59
2023-03-26T02:19:21.785Z,97698.22
2023-03-26T02:22:31.804Z,97701.91
2023-03-26T02:25:40.230Z,97700.75
2023-03-26T02:28:44.958Z,97708.44
2023-03-26T02:31:51.913Z,97711.59
2023-03-26T02:34:59.085Z,97714.69
2023-03-26T02:38:04.221Z,97716.97
2023-03-26T02:41:11.165Z,97713.59
2023-03-26T02:44:33.317Z,97714.97
2023-03-26T02:47:39.963Z,97732.72
2023-03-26T02:51:08.164Z,97730.72
2023-03-26T02:54:46.137Z,97733.28
2023-03-26T02:58:02.165Z,97741.84
2023-03-26T03:01:26.157Z,97736.59
2023-03-26T03:04:44.610Z,97745.41
2023-03-26T03:07:50.292Z,97742.78
2023-03-26T03:11:11.671Z,97721.31
2023-03-26T03:14:22.105Z,97726.53
2023-03-26T03:17:27.425Z,97725.34
2023-03-26T03:20:35.351Z,97733.97
2023-03-26T03:23:39.679Z,97731.66
2023-03-26T03:26:50.447Z,97732.88
2023-03-26T03:30:14.996Z,97743.53
2023-03-26T03:33:38.400Z,97740.63
2023-03-26T03:36:48.852Z,97748.03
2023-03-26T03:40:11.146Z,97742.19
2023-03-26T03:43:17.980Z,97744.78
2023-03-26T03:46:40.586Z,97737.38
2023-03-26T03:49:49.221Z,97731.50
2023-03-26T03:52:55.973Z,97730.88
2023-03-26T03:56:02.160Z,97729.94
2023-03-26T03:59:47.992Z,97727.56
2023-03-26T04:02:56.891Z,97729.75
2023-03-26T04:06:11.300Z,97729.59
2023-03-26T04:09:25.189Z,97722.84
2023-03-26T04:12:34.878Z,97733.13
2023-03-26T04:15:42.175Z,97737.97
2023-03-26T04:18:47.346Z,97742.25
2023-03-26T04:22:05.383Z,97745.47
2023-03-26T04:25:17.908Z,97754.88
2023-03-26T04:28:33.130Z,97750.22
2023-03-26T04:31:52.314Z,97748.84
2023-03-26T04:35:05.601Z,97744.66
2023-03-26T04:38:17.468Z,97748.03
2023-03-26T04:41:33.896Z,97741.69
2023-03-26T04:44:43.095Z,97750.53
2023-03-26T04:47:54.476Z,97754.44
2023-03-26T04:51:00.563Z,97758.19
2023-03-26T04:54:20.546Z,97761.78
2023-03-26T04:57:54.846Z,97775.53
2023-03-26T05:02:24.130Z,97770.16
2023-03-26T05:06:34.764Z,97785.91
2023-03-26T05:09:52.060Z,97778.41
2023-03-26T05:16:57.693Z,97791.69
2023-03-26T05:20:30.427Z,97783.09
2023-03-26T05:23:42.685Z,97769.13
2023-03-26T05:27:04.201Z,97790.56
2023-03-26T05:30:17.957Z,97783.03
2023-03-26T05:33:27.519Z,97785.03
2023-03-26T05:36:46.180Z,97781.84
2023-03-26T05:40:20.915Z,97793.97
2023-03-26T05:43:32.988Z,97802.16
2023-03-26T05:46:53.088Z,97805.97
2023-03-26T05:50:20.168Z,97802.47
2023-03-26T05:53:28.111Z,97797.34
2023-03-26T05:56:51.471Z,97809.91
2023-03-26T06:00:16.502Z,97802.84
2023-03-26T06:03:25.815Z,97798.41
2023-03-26T06:06:46.987Z,97804.22
2023-03-26T06:09:56.905Z,97815.25
2023-03-26T06:13:03.819Z,97809.38
2023-03-26T06:16:27.034Z,97813.69
2023-03-26T06:19:59.438Z,97802.25
2023-03-26T06:23:12.859Z,97803.03
2023-03-26T06:26:42.453Z,97790.91
2023-03-26T06:29:59.686Z,97791.59
2023-03-26T06:33:26.131Z,97796.25
2023-03-26T06:37:12.559Z,97806.91
2023-03-26T06:40:53.073Z,97808.91
2023-03-26T06:44:28.730Z,97806.59
2023-03-26T06:47:52.701Z,97808.91
2023-03-26T06:51:21.980Z,97800.97
2023-03-26T06:54:46.242Z,97805.91
2023-03-26T06:58:21.211Z,97808.25
2023-03-26T07:01:49.412Z,97800.19
2023-03-26T07:05:14.472Z,97806.66
2023-03-26T07:08:38.120Z,97813.75
2023-03-26T07:12:14.776Z,97799.88
2023-03-26T07:15:46.149Z,97808.41
2023-03-26T07:19:02.893Z,97800.31
2023-03-26T07:22:18.641Z,97796.97
2023-03-26T07:25:42.406Z,97783.72
2023-03-26T07:29:31.776Z,97784.59
2023-03-26T07:33:18.926Z,97790.78
2023-03-26T07:37:16.063Z,97776.53
2023-03-26T07:41:16.026Z,97785.53
2023-03-26T07:45:02.088Z,97767.88
2023-03-26T07:48:32.281Z,97763.97
2023-03-26T07:52:03.161Z,97758.47
2023-03-26T07:55:55.961Z,97741.91
2023-03-26T07:59:31.574Z,97745.13
2023-03-26T08:03:27.076Z,97740.22
2023-03-26T08:06:38.532Z,97741.25
2023-03-26T08:10:20.013Z,97736.66
2023-03-26T08:13:41.516Z,97732.53
2023-03-26T08:16:55.311Z,97737.25
2023-03-26T08:20:28.758Z,97735.41
2023-03-26T08:23:52.953Z,97739.13
2023-03-26T08:27:17.361Z,97736.59
2023-03-26T08:30:50.847Z,97721.59
2023-03-26T08:34:02.568Z,97719.31
2023-03-26T08:37:10.405Z,97709.31
2023-03-26T08:40:42.989Z,97708.81
2023-03-26T08:44:21.565Z,97698.06
2023-03-26T08:52:54.440Z,97694.66
2023-03-26T08:56:09.050Z,97689.75
2023-03-26T09:00:06.591Z,97693.59
2023-03-26T09:03:50.064Z,97685.94
2023-03-26T09:07:34.436Z,97683.69
2023-03-26T09:10:53.095Z,97684.91
2023-03-26T09:14:43.282Z,97689.28
2023-03-26T09:18:34.750Z,97685.44
2023-03-26T09:22:38.436Z,97681.59
2023-03-26T09:26:04.495Z,97673.94
2023-03-26T09:29:54.632Z,97659.03
2023-03-26T09:33:47.457Z,97668.06
2023-03-26T09:37:05.953Z,97669.84
2023-03-26T09:40:22.727Z,97665.97
2023-03-26T09:44:21.861Z,97655.72
2023-03-26T09:48:16.082Z,97658.53
2023-03-26T09:51:48.706Z,97646.94
2023-03-26T09:55:09.412Z,97650.63
2023-03-26T09:58:41.034Z,97648.09
2023-03-26T10:02:07.229Z,97642.84
2023-03-26T10:05:48.094Z,97644.09
2023-03-26T10:09:50.766Z,97641.56
2023-03-26T10:13:23.067Z,97628.06
2023-03-26T10:16:46.583Z,97622.72
2023-03-26T10:20:09.855Z,97615.28
2023-03-26T10:23:31.997Z,97603.97
2023-03-26T10:27:09.385Z,97601.34
2023-03-26T10:30:30.812Z,97593.22
2023-03-26T10:33:49.990Z,97589.63
2023-03-26T10:36:59.871Z,97590.28
2023-03-26T10:40:19.818Z,97586.75
2023-03-26T10:44:07.450Z,97575.44
2023-03-26T10:48:13.916Z,97575.59
2023-03-26T10:51:53.575Z,97567.41
2023-03-26T10:55:12.197Z,97564.78
2023-03-26T10:58:26.619Z,97561.31
2023-03-26T11:01:41.816Z,97553.34
2023-03-26T11:05:02.179Z,97552.03
2023-03-26T11:08:19.103Z,97536.88
2023-03-26T11:12:26.553Z,97532.09
2023-03-26T11:15:50.288Z,97525.69
2023-03-26T11:19:21.390Z,97518.78
2023-03-26T11:22:43.118Z,97518.19
2023-03-26T11:26:11.483Z,97514.28
2023-03-26T11:29:40.477Z,97507.41
2023-03-26T11:32:59.067Z,97503.94
2023-03-26T11:41:06.388Z,97489.28
2023-03-26T11:45:17.864Z,97475.63
2023-03-26T11:48:34.344Z,97468.66
2023-03-26T11:51:52.349Z,97466.84
2023-03-26T11:55:15.161Z,97456.56
2023-03-26T11:58:31.441Z,97446.34
2023-03-26T12:01:56.634Z,97436.00
2023-03-26T12:05:24.894Z,97438.09
2023-03-26T12:08:38.485Z,97424.28
2023-03-26T12:15:46.796Z,97406.56
2023-03-26T12:19:17.000Z,97401.19
2023-03-26T12:23:41.701Z,97391.63
2023-03-26T12:26:57.024Z,97372.66
2023-03-26T12:30:31.038Z,97367.63
2023-03-26T12:33:45.352Z,97363.66
2023-03-26T12:37:00.329Z,97347.00
2023-03-26T12:40:29.492Z,97337.06
2023-03-26T12:44:50.661Z,97333.44
2023-03-26T12:47:58.100Z,97327.72
2023-03-26T12:51:02.168Z,97313.69
2023-03-26T12:54:23.872Z,97308.47
2023-03-26T12:57:40.725Z,97294.78
2023-03-26T13:00:59.684Z,97292.91
2023-03-26T13:04:35.617Z,97281.56
2023-03-26T13:07:58.077Z,97276.81
2023-03-26T13:11:13.115Z,97274.75
2023-03-26T13:15:00.236Z,97265.56
2023-03-26T13:18:37.395Z,97265.75
2023-03-26T13:22:01.583Z,97247.63
2023-03-26T13:25:29.063Z,97246.78
2023-03-26T13:28:54.794Z,97244.88
2023-03-26T13:36:19.320Z,97222.22
2023-03-26T13:39:40.499Z,97217.78
2023-03-26T13:43:14.269Z,97219.09
2023-03-26T13:46:49.919Z,97206.53
2023-03-26T13:50:10.214Z,97202.91
2023-03-26T13:53:50.646Z,97190.25
2023-03-26T13:58:14.206Z,97188.44
2023-03-26T14:01:48.134Z,97185.53
2023-03-26T14:04:58.554Z,97178.63
2023-03-26T14:08:13.482Z,97174.47
2023-03-26T14:11:24.573Z,97172.06
2023-03-26T14:14:49.560Z,97165.34
2023-03-26T14:18:13.121Z,97148.38
2023-03-26T14:21:55.368Z,97149.91
2023-03-26T14:25:27.801Z,97146.84
2023-03-26T14:30:02.211Z,97140.91
2023-03-26T14:33:50.160Z,97142.06
2023-03-26T14:37:29.661Z,97134.13
2023-03-26T14:40:59.978Z,97121.72
2023-03-26T14:45:10.142Z,97125.31
2023-03-26T14:48:51.169Z,97105.97
2023-03-26T14:52:18.066Z,97115.50
2023-03-26T14:56:20.480Z,97113.63
2023-03-26T15:00:50.700Z,97095.03
2023-03-26T15:04:51.784Z,97085.53
2023-03-26T15:08:40.694Z,97083.78
2023-03-26T15:12:12.960Z,97082.50
2023-03-26T15:15:54.293Z,97080.28
2023-03-26T15:19:46.105Z,97075.72
2023-03-26T15:23:30.867Z,97070.66
2023-03-26T15:27:39.734Z,97063.63
2023-03-26T15:31:40.851Z,97057.84
2023-03-26T15:35:34.024Z,97047.72
2023-03-26T15:39:15.039Z,97043.06
2023-03-26T15:42:33.032Z,97036.69
2023-03-26T15:45:41.250Z,97034.38
2023-03-26T15:48:58.123Z,97026.03
2023-03-26T15:52:21.772Z,97028.16
2023-03-26T15:55:36.853Z,97028.03
2023-03-26T15:59:00.551Z,97013.25
2023-03-26T16:02:27.432Z,97012.66
2023-03-26T16:05:45.366Z,97008.34
2023-03-26T16:09:05.369Z,97010.38
2023-03-26T16:12:32.284Z,97006.13
2023-03-26T16:15:41.196Z,97009.84
2023-03-26T16:19:16.401Z,97004.44
2023-03-26T16:22:46.576Z,96991.81
2023-03-26T16:26:11.060Z,96990.47
2023-03-26T16:29:25.928Z,96984.84
2023-03-26T16:32:36.960Z,96975.94
2023-03-26T16:36:50.604Z,96978.00
2023-03-26T16:41:14.552Z,96979.53
2023-03-26T16:45:16.385Z,96972.81
2023-03-26T16:49:25.033Z,96958.25
2023-03-26T16:53:03.716Z,96964.78
2023-03-26T16:56:17.935Z,96969.47
2023-03-26T16:59:40.370Z,96968.84
2023-03-26T17:03:00.002Z,96963.63
2023-03-26T17:06:44.147Z,96958.59
2023-03-26T17:10:17.798Z,96948.84
2023-03-26T17:13:32.331Z,96936.16
2023-03-26T17:16:49.739Z,96938.88
2023-03-26T17:20:35.655Z,96939.31
2023-03-26T17:24:33.788Z,96940.56
2023-03-26T17:28:50.031Z,96930.66
2023-03-26T17:32:49.521Z,96931.53
2023-03-26T17:41:11.310Z,96945.97
2023-03-26T17:45:22.796Z,96929.81
2023-03-26T17:49:37.923Z,96940.69
2023-03-26T17:53:40.193Z,96936.28
2023-03-26T17:57:56.638Z,96941.53
2023-03-26T18:01:28.999Z,96939.53
2023-03-26T18:04:39.096Z,96934.22
2023-03-26T18:08:12.576Z,96945.91
2023-03-26T18:11:45.762Z,96938.56
2023-03-26T18:15:13.565Z,96946.94
2023-03-26T18:18:22.866Z,96948.69
2023-03-26T18:21:36.170Z,96950.03
2023-03-26T18:24:43.623Z,96952.69
2023-03-26T18:31:39.606Z,96940.22
2023-03-26T18:35:27.849Z,96936.75
2023-03-26T18:39:42.541Z,96917.25
2023-03-26T18:43:03.051Z,96923.84
2023-03-26T18:46:34.531Z,96912.56
2023-03-26T18:54:10.582Z,96913.97
2023-03-26T18:57:23.460Z,96908.13
2023-03-26T19:00:53.415Z,96905.06
2023-03-26T19:04:32.601Z,96893.72
2023-03-26T19:08:30.448Z,96897.50
2023-03-26T19:12:11.819Z,96898.63
2023-03-26T19:16:06.516Z,96897.84
2023-03-26T19:20:02.914Z,96897.59
2023-03-26T19:28:00.512Z,96880.06
2023-03-26T19:33:13.566Z,96872.94
2023-03-26T19:50:42.414Z,96816.78
2023-03-26T19:54:59.007Z,96820.81
2023-03-26T20:02:56.748Z,96801.25
2023-03-26T20:07:15.145Z,96780.22
2023-03-26T20:11:07.328Z,96769.81
2023-03-26T20:15:05.653Z,96778.53
2023-03-26T20:28:02.670Z,96769.13
2023-03-26T20:31:52.121Z,96766.00
2023-03-26T20:40:48.363Z,96760.13
2023-03-26T20:45:10.829Z,96737.09
2023-03-26T20:50:22.781Z,96721.28
2023-03-26T20:54:02.903Z,96710.38
2023-03-26T20:57:56.913Z,96701.97
2023-03-26T21:01:12.248Z,96708.34
2023-03-26T21:05:09.550Z,96697.44
2023-03-26T21:08:54.485Z,96702.84
2023-03-26T21:12:50.170Z,96693.94
2023-03-26T21:16:46.682Z,96673.63
2023-03-26T21:20:47.886Z,96668.56
2023-03-26T21:25:09.146Z,96671.41
2023-03-26T21:33:26.097Z,96662.72
2023-03-26T21:37:21.586Z,96663.94
2023-03-26T21:41:13.196Z,96637.13
2023-03-26T21:45:53.958Z,96621.59
2023-03-26T21:49:35.097Z,96620.91
2023-03-26T21:53:58.035Z,96616.78
2023-03-26T22:06:32.449Z,96600.81
2023-03-26T22:10:23.352Z,96595.19
2023-03-26T22:13:44.883Z,96596.72
2023-03-26T22:17:22.084Z,96595.66
2023-03-26T22:21:41.934Z,96589.38
2023-03-26T22:25:36.169Z,96582.84
2023-03-26T22:29:44.744Z,96580.69
2023-03-26T22:33:45.071Z,96568.09
2023-03-26T22:37:32.886Z,96569.66
2023-03-26T22:41:51.452Z,96550.75
2023-03-26T22:45:32.793Z,96554.53
2023-03-26T22:50:00.359Z,96551.78
2023-03-26T22:53:56.945Z,96547.56
2023-03-26T22:58:19.438Z,96536.41
2023-03-26T23:02:38.361Z,96542.28
2023-03-26T23:06:52.175Z,96525.41
2023-03-26T23:11:18.665Z,96516.19
2023-03-26T23:14:45.419Z,96498.47
2023-03-26T23:18:47.900Z,96496.16
2023-03-26T23:22:38.794Z,96499.47
2023-03-26T23:26:07.330Z,96499.22
2023-03-26T23:29:29.431Z,96493.63
2023-03-26T23:33:22.668Z,96491.84
2023-03-26T23:37:16.978Z,96481.47
2023-03-26T23:41:23.979Z,96487.31
2023-03-26T23:45:00.054Z,96491.84
2023-03-26T23:48:34.229Z,96490.84
2023-03-26T23:57:52.986Z,96494.38
